createdAt,value
2019-05-16T00:00:40.792Z,15.10
2019-05-16T00:03:13.943Z,15.10
2019-05-16T00:05:53.953Z,15.00
2019-05-16T00:08:21.877Z,15.00
2019-05-16T00:10:54.063Z,15.00
2019-05-16T00:13:27.999Z,15.10
2019-05-16T00:16:00.633Z,15.10
2019-05-16T00:18:34.960Z,15.10
2019-05-16T00:21:08.691Z,15.10
2019-05-16T00:23:42.957Z,15.10
2019-05-16T00:26:19.751Z,15.10
2019-05-16T00:28:51.899Z,15.10
2019-05-16T00:31:38.253Z,15.10
2019-05-16T00:34:14.855Z,15.10
2019-05-16T00:36:50.989Z,15.10
2019-05-16T00:39:28.118Z,15.10
2019-05-16T00:42:01.126Z,15.10
2019-05-16T00:44:33.174Z,15.10
2019-05-16T00:47:05.663Z,15.10
2019-05-16T00:49:39.878Z,15.10
2019-05-16T00:52:12.270Z,15.20
2019-05-16T00:54:48.667Z,15.20
2019-05-16T00:57:22.455Z,15.20
2019-05-16T00:59:55.503Z,15.20
2019-05-16T01:02:29.966Z,15.20
2019-05-16T01:05:03.301Z,15.20
2019-05-16T01:07:43.416Z,15.20
2019-05-16T01:10:18.359Z,15.20
2019-05-16T01:13:01.184Z,15.20
2019-05-16T01:15:40.120Z,15.20
2019-05-16T01:18:18.454Z,15.20
2019-05-16T01:20:58.807Z,15.20
2019-05-16T01:23:30.673Z,15.20
2019-05-16T01:26:07.823Z,15.20
2019-05-16T01:28:43.262Z,15.20
2019-05-16T01:31:21.224Z,15.20
2019-05-16T01:33:58.360Z,15.20
2019-05-16T01:36:37.053Z,15.20
2019-05-16T01:39:09.409Z,15.20
2019-05-16T01:41:42.931Z,15.30
2019-05-16T01:44:18.931Z,15.30
2019-05-16T01:46:51.198Z,15.30
2019-05-16T01:49:23.075Z,15.30
2019-05-16T01:51:58.301Z,15.30
2019-05-16T01:54:32.624Z,15.30
2019-05-16T01:57:05.506Z,15.20
2019-05-16T01:59:40.691Z,15.20
2019-05-16T02:02:14.622Z,15.20
2019-05-16T02:04:48.512Z,15.20
2019-05-16T02:07:23.795Z,15.20
2019-05-16T02:09:58.087Z,15.20
2019-05-16T02:12:29.277Z,15.20
2019-05-16T02:15:04.493Z,15.20
2019-05-16T02:17:43.722Z,15.30
2019-05-16T02:20:17.807Z,15.30
2019-05-16T02:22:52.053Z,15.30
2019-05-16T02:25:23.913Z,15.30
2019-05-16T02:27:56.229Z,15.30
2019-05-16T02:30:31.651Z,15.30
2019-05-16T02:33:04.100Z,15.30
2019-05-16T02:35:36.005Z,15.30
2019-05-16T02:38:07.830Z,15.30
2019-05-16T02:40:41.726Z,15.30
2019-05-16T02:43:13.856Z,15.30
2019-05-16T02:45:45.941Z,15.30
2019-05-16T02:48:21.397Z,15.30
2019-05-16T02:50:53.047Z,15.30
2019-05-16T02:53:51.056Z,15.30
2019-05-16T02:56:27.347Z,15.30
2019-05-16T02:59:02.860Z,15.30
2019-05-16T03:01:40.832Z,15.30
2019-05-16T03:04:17.061Z,15.30
2019-05-16T03:06:51.235Z,15.30
2019-05-16T03:09:24.071Z,15.30
2019-05-16T03:12:02.971Z,15.30
2019-05-16T03:14:35.140Z,15.20
2019-05-16T03:17:07.235Z,15.20
2019-05-16T03:19:41.734Z,15.20
2019-05-16T03:22:21.587Z,15.30
2019-05-16T03:24:57.223Z,15.30
2019-05-16T03:27:30.734Z,15.30
2019-05-16T03:30:07.677Z,15.20
2019-05-16T03:32:44.760Z,15.30
2019-05-16T03:35:24.934Z,15.30
2019-05-16T03:38:00.578Z,15.30
2019-05-16T03:40:31.437Z,15.30
2019-05-16T03:43:05.878Z,15.30
2019-05-16T03:45:41.588Z,15.30
2019-05-16T03:48:13.552Z,15.20
2019-05-16T03:50:52.053Z,15.20
2019-05-16T03:53:23.759Z,15.20
2019-05-16T03:55:56.620Z,15.20
2019-05-16T03:58:30.958Z,15.20
2019-05-16T04:01:02.950Z,15.20
2019-05-16T04:03:35.047Z,15.20
2019-05-16T04:06:11.953Z,15.20
2019-05-16T04:08:45.666Z,15.20
2019-05-16T04:11:23.315Z,15.20
2019-05-16T04:13:56.743Z,15.20
2019-05-16T04:16:31.654Z,15.10
2019-05-16T04:19:05.201Z,15.10
2019-05-16T04:21:41.754Z,15.10
2019-05-16T04:24:14.494Z,15.10
2019-05-16T04:26:46.559Z,15.10
2019-05-16T04:29:20.693Z,15.10
2019-05-16T04:31:51.002Z,15.10
2019-05-16T04:34:22.668Z,15.00
2019-05-16T04:36:55.005Z,15.00
2019-05-16T04:39:26.743Z,15.00
2019-05-16T04:42:01.434Z,15.00
2019-05-16T04:44:33.775Z,15.10
2019-05-16T04:47:10.990Z,15.10
2019-05-16T04:49:44.154Z,15.10
2019-05-16T04:52:21.522Z,15.00
2019-05-16T04:54:53.383Z,15.10
2019-05-16T04:57:25.798Z,15.00
2019-05-16T05:00:02.467Z,15.00
2019-05-16T05:02:37.524Z,15.00
2019-05-16T05:05:21.158Z,15.00
2019-05-16T05:07:51.410Z,15.00
2019-05-16T05:10:24.488Z,15.10
2019-05-16T05:13:01.645Z,15.10
2019-05-16T05:15:35.999Z,15.10
2019-05-16T05:18:10.791Z,15.10
2019-05-16T05:20:46.102Z,15.10
2019-05-16T05:23:35.965Z,15.10
2019-05-16T05:26:14.091Z,15.10
2019-05-16T05:28:59.781Z,15.10
2019-05-16T05:31:35.282Z,15.10
2019-05-16T05:34:12.025Z,15.10
2019-05-16T05:36:43.984Z,15.00
2019-05-16T05:39:21.707Z,15.10
2019-05-16T05:42:00.257Z,15.10
2019-05-16T05:44:41.498Z,15.10
2019-05-16T05:47:15.042Z,15.10
2019-05-16T05:49:49.856Z,15.10
2019-05-16T05:52:21.763Z,15.10
2019-05-16T05:54:56.257Z,15.20
2019-05-16T05:57:30.166Z,15.10
2019-05-16T06:00:02.143Z,15.10
2019-05-16T06:02:40.284Z,15.10
2019-05-16T06:05:14.709Z,15.10
2019-05-16T06:07:47.700Z,15.10
2019-05-16T06:10:21.270Z,15.10
2019-05-16T06:12:55.756Z,15.10
2019-05-16T06:15:31.882Z,15.10
2019-05-16T06:18:04.102Z,15.10
2019-05-16T06:20:40.107Z,15.10
2019-05-16T06:23:15.397Z,15.10
2019-05-16T06:25:50.437Z,15.10
2019-05-16T06:28:24.544Z,15.10
2019-05-16T06:31:14.021Z,15.10
2019-05-16T06:33:50.039Z,15.10
2019-05-16T06:39:47.245Z,15.00
2019-05-16T06:42:24.417Z,15.00
2019-05-16T06:45:00.750Z,15.00
2019-05-16T06:48:05.604Z,15.10
2019-05-16T06:50:34.076Z,15.10
2019-05-16T06:53:22.216Z,15.10
2019-05-16T06:56:00.485Z,15.10
2019-05-16T06:58:45.731Z,15.10
2019-05-16T07:01:16.471Z,15.20
2019-05-16T07:04:05.103Z,15.20
2019-05-16T07:06:54.174Z,15.20
2019-05-16T07:09:23.628Z,15.20
2019-05-16T07:11:57.224Z,15.20
2019-05-16T07:14:33.295Z,15.20
2019-05-16T07:17:11.461Z,15.20
2019-05-16T07:19:50.446Z,15.20
2019-05-16T07:22:31.994Z,15.20
2019-05-16T07:25:23.669Z,15.20
2019-05-16T07:28:00.692Z,15.20
2019-05-16T07:30:35.426Z,15.20
2019-05-16T07:33:09.673Z,15.10
2019-05-16T07:36:02.242Z,15.10
2019-05-16T07:38:36.113Z,15.10
2019-05-16T07:41:10.980Z,15.10
2019-05-16T07:43:50.449Z,14.90
2019-05-16T07:49:07.317Z,14.70
2019-05-16T07:51:41.827Z,14.80
2019-05-16T07:54:15.462Z,14.80
2019-05-16T07:56:57.233Z,14.90
2019-05-16T07:59:26.038Z,14.90
2019-05-16T08:02:00.852Z,15.00
2019-05-16T08:05:46.303Z,15.00
2019-05-16T08:08:25.952Z,15.00
2019-05-16T08:11:01.117Z,15.00
2019-05-16T08:13:34.063Z,15.10
2019-05-16T08:16:05.827Z,15.00
2019-05-16T08:18:44.647Z,15.00
2019-05-16T08:21:16.556Z,15.00
2019-05-16T08:23:50.348Z,15.00
2019-05-16T08:26:24.878Z,14.90
2019-05-16T08:29:02.106Z,14.80
2019-05-16T08:31:33.170Z,14.90
2019-05-16T08:34:05.174Z,14.90
2019-05-16T08:36:37.421Z,14.90
2019-05-16T08:39:11.018Z,14.90
2019-05-16T08:41:52.410Z,15.00
2019-05-16T08:44:24.279Z,14.90
2019-05-16T08:46:58.212Z,14.80
2019-05-16T08:49:30.782Z,14.70
2019-05-16T08:52:04.016Z,14.80
2019-05-16T08:54:35.860Z,14.80
2019-05-16T08:57:25.809Z,14.80
2019-05-16T08:59:42.803Z,14.80
2019-05-16T09:02:15.673Z,14.80
2019-05-16T09:04:53.075Z,14.80
2019-05-16T09:07:22.737Z,14.90
2019-05-16T09:10:00.885Z,14.90
2019-05-16T09:12:33.530Z,15.00
2019-05-16T09:15:08.447Z,15.00
2019-05-16T09:17:40.919Z,15.00
2019-05-16T09:20:13.328Z,15.00
2019-05-16T09:22:51.916Z,15.00
2019-05-16T09:25:24.088Z,15.00
2019-05-16T09:27:57.170Z,15.00
2019-05-16T09:30:28.633Z,15.00
2019-05-16T09:33:00.387Z,15.00
2019-05-16T09:35:33.777Z,15.00
2019-05-16T09:38:07.187Z,15.10
2019-05-16T09:40:41.430Z,15.10
2019-05-16T09:43:17.460Z,15.00
2019-05-16T09:45:57.326Z,15.00
2019-05-16T09:48:27.980Z,15.00
2019-05-16T09:51:00.117Z,15.10
2019-05-16T09:53:32.895Z,15.10
2019-05-16T09:56:06.822Z,15.10
2019-05-16T09:58:38.512Z,15.10
2019-05-16T10:01:17.068Z,15.10
2019-05-16T10:03:52.762Z,15.10
2019-05-16T10:06:27.447Z,15.10
2019-05-16T10:09:10.134Z,15.10
2019-05-16T10:11:43.913Z,15.10
2019-05-16T10:14:17.327Z,15.10
2019-05-16T10:16:47.984Z,15.10
2019-05-16T10:19:19.675Z,15.00
2019-05-16T10:21:52.647Z,15.00
2019-05-16T10:24:26.837Z,15.00
2019-05-16T10:26:59.019Z,15.10
2019-05-16T10:29:31.428Z,15.00
2019-05-16T10:32:03.622Z,15.10
2019-05-16T10:34:37.114Z,15.00
2019-05-16T10:37:08.910Z,15.00
2019-05-16T10:39:41.143Z,15.00
2019-05-16T10:42:24.958Z,15.00
2019-05-16T10:44:51.760Z,15.10
2019-05-16T10:47:24.193Z,15.10
2019-05-16T10:49:56.561Z,15.10
2019-05-16T10:52:28.571Z,15.10
2019-05-16T10:55:02.485Z,15.10
2019-05-16T10:57:34.176Z,15.10
2019-05-16T11:00:27.316Z,15.10
2019-05-16T11:02:49.267Z,15.00
2019-05-16T11:05:30.108Z,15.00
2019-05-16T11:07:57.891Z,15.00
2019-05-16T11:10:30.144Z,15.00
2019-05-16T11:13:02.027Z,15.00
2019-05-16T11:15:37.476Z,15.10
2019-05-16T11:21:49.172Z,15.10
2019-05-16T11:24:34.638Z,15.10
2019-05-16T11:27:15.112Z,15.10
2019-05-16T11:29:52.455Z,15.10
2019-05-16T11:32:26.946Z,15.10
2019-05-16T11:35:04.068Z,15.10
2019-05-16T11:37:40.031Z,15.20
2019-05-16T11:40:12.702Z,15.20
2019-05-16T11:42:48.663Z,15.20
2019-05-16T11:45:27.058Z,15.20
2019-05-16T11:47:59.480Z,15.30
2019-05-16T11:50:31.450Z,15.30
2019-05-16T11:53:03.379Z,15.30
2019-05-16T11:55:47.650Z,15.30
2019-05-16T11:58:09.589Z,15.30
2019-05-16T12:00:43.388Z,15.40
2019-05-16T12:03:17.061Z,15.40
2019-05-16T12:05:49.094Z,15.40
2019-05-16T12:20:23.069Z,15.30
2019-05-16T12:22:55.137Z,15.30
2019-05-16T12:25:38.388Z,15.30
2019-05-16T12:28:13.544Z,15.30
2019-05-16T12:31:07.363Z,15.30
2019-05-16T12:33:48.802Z,15.30
2019-05-16T12:36:21.143Z,15.30
2019-05-16T12:39:01.365Z,15.30
2019-05-16T12:41:34.489Z,15.30
2019-05-16T12:44:11.793Z,15.30
2019-05-16T12:46:44.068Z,15.30
2019-05-16T12:49:23.716Z,15.30
2019-05-16T12:51:57.010Z,15.30
2019-05-16T12:54:27.923Z,15.30
2019-05-16T12:57:12.742Z,15.20
2019-05-16T12:59:50.047Z,15.20
2019-05-16T13:02:22.716Z,15.20
2019-05-16T13:05:08.090Z,15.30
2019-05-16T13:07:37.744Z,15.30
2019-05-16T13:10:13.985Z,15.30
2019-05-16T13:13:07.690Z,15.30
2019-05-16T13:15:53.599Z,15.30
2019-05-16T13:18:27.905Z,15.30
2019-05-16T13:21:06.795Z,15.30
2019-05-16T13:23:39.514Z,15.40
2019-05-16T13:27:22.246Z,15.40
2019-05-16T13:30:54.031Z,15.40
2019-05-16T13:33:53.483Z,15.40
2019-05-16T13:36:31.956Z,15.30
2019-05-16T13:39:09.234Z,15.30
2019-05-16T13:42:01.729Z,15.30
2019-05-16T13:44:34.431Z,15.30
2019-05-16T13:47:12.746Z,15.30
2019-05-16T13:49:45.446Z,15.30
2019-05-16T13:52:19.495Z,15.30
2019-05-16T13:54:51.962Z,15.30
2019-05-16T13:57:32.383Z,15.30
2019-05-16T14:00:09.519Z,15.30
2019-05-16T14:02:42.357Z,15.20
2019-05-16T14:05:18.614Z,15.20
2019-05-16T14:07:57.090Z,15.20
2019-05-16T14:10:38.259Z,15.20
2019-05-16T14:13:16.526Z,15.20
2019-05-16T14:15:49.037Z,15.20
2019-05-16T14:18:22.966Z,15.20
2019-05-16T14:20:58.195Z,15.20
2019-05-16T14:23:31.838Z,15.10
2019-05-16T14:29:39.578Z,15.10
2019-05-16T14:32:13.827Z,15.10
2019-05-16T14:35:15.507Z,15.10
2019-05-16T14:38:06.930Z,15.10
2019-05-16T14:40:39.252Z,15.10
2019-05-16T14:43:13.595Z,15.10
2019-05-16T14:45:46.690Z,15.00
2019-05-16T14:48:29.433Z,15.00
2019-05-16T14:51:37.934Z,15.10
2019-05-16T14:54:58.883Z,15.10
2019-05-16T14:57:32.406Z,15.10
2019-05-16T15:00:10.984Z,15.10
2019-05-16T15:02:43.674Z,15.10
2019-05-16T15:06:03.892Z,15.10
2019-05-16T15:10:11.647Z,15.10
2019-05-16T15:11:53.353Z,15.00
2019-05-16T15:14:30.539Z,15.10
2019-05-16T15:17:16.731Z,15.10
2019-05-16T15:19:59.345Z,15.10
2019-05-16T15:23:18.339Z,15.10
2019-05-16T15:26:18.223Z,15.10
2019-05-16T15:29:33.316Z,15.10
2019-05-16T15:36:16.687Z,15.20
2019-05-16T15:38:56.686Z,15.10
2019-05-16T15:41:38.207Z,15.20
2019-05-16T15:50:00.217Z,15.20
2019-05-16T15:53:17.655Z,15.20
2019-05-16T15:56:02.337Z,15.20
2019-05-16T15:58:37.387Z,15.20
2019-05-16T16:01:12.329Z,15.20
2019-05-16T16:03:52.173Z,15.20
2019-05-16T16:06:30.123Z,15.20
2019-05-16T16:09:48.635Z,15.20
2019-05-16T16:12:47.706Z,15.20
2019-05-16T16:15:28.030Z,15.20
2019-05-16T16:18:09.170Z,15.20
2019-05-16T16:20:52.592Z,15.20
2019-05-16T16:23:38.651Z,15.30
2019-05-16T16:26:17.801Z,15.30
2019-05-16T16:28:51.249Z,15.30
2019-05-16T16:31:27.378Z,15.30
2019-05-16T16:33:59.944Z,15.30
2019-05-16T16:36:36.627Z,15.40
2019-05-16T16:39:12.300Z,15.40
2019-05-16T16:41:47.592Z,15.40
2019-05-16T16:44:21.932Z,15.40
2019-05-16T16:47:41.426Z,15.40
2019-05-16T16:50:08.003Z,15.30
2019-05-16T16:52:40.609Z,15.30
2019-05-16T16:55:18.875Z,15.30
2019-05-16T16:58:09.686Z,15.40
2019-05-16T17:00:52.483Z,15.40
2019-05-16T17:03:48.583Z,15.40
2019-05-16T17:06:57.484Z,15.40
2019-05-16T17:09:29.041Z,15.40
2019-05-16T17:12:00.630Z,15.40
2019-05-16T17:14:33.925Z,15.40
2019-05-16T17:17:07.011Z,15.40
2019-05-16T17:19:40.086Z,15.40
2019-05-16T17:22:20.807Z,15.40
2019-05-16T17:25:00.288Z,15.30
2019-05-16T17:27:51.827Z,15.30
2019-05-16T17:30:40.269Z,15.30
2019-05-16T17:33:23.029Z,15.30
2019-05-16T17:36:00.647Z,15.40
2019-05-16T17:38:37.614Z,15.40
2019-05-16T17:41:21.501Z,15.40
2019-05-16T17:43:56.332Z,15.40
2019-05-16T17:46:37.206Z,15.40
2019-05-16T17:49:08.325Z,15.40
2019-05-16T17:51:44.607Z,15.40
2019-05-16T17:54:26.715Z,15.40
2019-05-16T17:57:07.478Z,15.40
2019-05-16T18:08:02.912Z,15.30
2019-05-16T18:10:36.433Z,15.30
2019-05-16T18:13:07.944Z,15.30
2019-05-16T18:15:39.934Z,15.40
2019-05-16T18:18:11.607Z,15.40
2019-05-16T18:20:54.808Z,15.40
2019-05-16T18:23:16.865Z,15.40
2019-05-16T18:25:48.357Z,15.40
2019-05-16T18:28:19.816Z,15.40
2019-05-16T18:30:51.120Z,15.50
2019-05-16T18:33:22.810Z,15.40
2019-05-16T18:35:54.917Z,15.40
2019-05-16T18:38:26.573Z,15.40
2019-05-16T18:40:59.818Z,15.40
2019-05-16T18:43:31.555Z,15.40
2019-05-16T18:46:03.271Z,15.40
2019-05-16T18:48:36.636Z,15.40
2019-05-16T18:51:07.541Z,15.40
2019-05-16T18:53:39.280Z,15.40
2019-05-16T18:56:11.090Z,15.40
2019-05-16T18:58:43.006Z,15.40
2019-05-16T19:01:17.393Z,15.40
2019-05-16T19:03:49.043Z,15.40
2019-05-16T19:06:20.887Z,15.50
2019-05-16T19:08:52.641Z,15.50
2019-05-16T19:11:26.751Z,15.50
2019-05-16T19:13:59.412Z,15.60
2019-05-16T19:16:31.343Z,15.50
2019-05-16T19:19:03.086Z,15.60
2019-05-16T19:21:36.739Z,15.60
2019-05-16T19:24:08.215Z,15.60
2019-05-16T19:26:40.386Z,15.50
2019-05-16T19:29:12.898Z,15.50
2019-05-16T19:31:46.979Z,15.50
2019-05-16T19:34:21.584Z,15.50
2019-05-16T19:36:57.014Z,15.50
2019-05-16T19:39:31.050Z,15.50
2019-05-16T19:42:02.847Z,15.50
2019-05-16T19:44:37.316Z,15.50
2019-05-16T19:47:08.687Z,15.60
2019-05-16T19:49:40.612Z,15.50
2019-05-16T19:52:11.927Z,15.60
2019-05-16T19:54:46.950Z,15.60
2019-05-16T19:57:17.725Z,15.50
2019-05-16T19:59:49.250Z,15.60
2019-05-16T20:02:20.833Z,15.60
2019-05-16T20:04:52.711Z,15.60
2019-05-16T20:07:26.329Z,15.60
2019-05-16T20:09:57.561Z,15.60
2019-05-16T20:12:30.258Z,15.60
2019-05-16T20:15:07.955Z,15.60
2019-05-16T20:17:37.749Z,15.60
2019-05-16T20:20:10.989Z,15.60
2019-05-16T20:22:43.345Z,15.60
2019-05-16T20:25:16.372Z,15.60
2019-05-16T20:27:49.433Z,15.60
2019-05-16T20:30:22.947Z,15.60
2019-05-16T20:32:54.856Z,15.60
2019-05-16T20:35:27.766Z,15.60
2019-05-16T20:37:59.959Z,15.60
2019-05-16T20:40:31.663Z,15.60
2019-05-16T20:43:03.468Z,15.60
2019-05-16T20:45:36.650Z,15.60
2019-05-16T20:48:14.675Z,15.60
2019-05-16T20:50:42.483Z,15.60
2019-05-16T20:53:17.593Z,15.70
2019-05-16T20:55:49.605Z,15.70
2019-05-16T20:58:21.467Z,15.70
2019-05-16T21:00:53.162Z,15.70
2019-05-16T21:03:26.971Z,15.70
2019-05-16T21:05:59.483Z,15.70
2019-05-16T21:08:30.932Z,15.70
2019-05-16T21:11:02.231Z,15.70
2019-05-16T21:13:34.694Z,15.70
2019-05-16T21:16:10.807Z,15.70
2019-05-16T21:18:42.498Z,15.70
2019-05-16T21:21:16.586Z,15.60
2019-05-16T21:23:47.702Z,15.70
2019-05-16T21:26:19.099Z,15.70
2019-05-16T21:28:50.395Z,15.60
2019-05-16T21:31:21.769Z,15.60
2019-05-16T21:33:53.452Z,15.60
2019-05-16T21:36:27.428Z,15.60
2019-05-16T21:38:58.478Z,15.60
2019-05-16T21:41:30.282Z,15.60
2019-05-16T21:44:01.585Z,15.60
2019-05-16T21:46:32.792Z,15.60
2019-05-16T21:49:04.303Z,15.60
2019-05-16T21:51:37.426Z,15.60
2019-05-16T21:54:07.855Z,15.60
2019-05-16T21:56:39.319Z,15.60
2019-05-16T21:59:11.044Z,15.60
2019-05-16T22:01:42.768Z,15.60
2019-05-16T22:04:15.174Z,15.60
2019-05-16T22:06:47.515Z,15.60
2019-05-16T22:09:20.419Z,15.60
2019-05-16T22:11:52.137Z,15.60
2019-05-16T22:14:27.584Z,15.60
2019-05-16T22:16:57.781Z,15.50
2019-05-16T22:19:29.891Z,15.50
2019-05-16T22:22:01.371Z,15.50
2019-05-16T22:24:33.299Z,15.50
2019-05-16T22:27:06.865Z,15.60
2019-05-16T22:29:38.613Z,15.60
2019-05-16T22:32:09.944Z,15.60
2019-05-16T22:34:41.548Z,15.60
2019-05-16T22:37:12.867Z,15.60
2019-05-16T22:39:46.339Z,15.60
2019-05-16T22:42:17.819Z,15.60
2019-05-16T22:44:49.530Z,15.60
2019-05-16T22:47:20.845Z,15.60
2019-05-16T22:49:52.141Z,15.60
2019-05-16T22:52:23.731Z,15.60
2019-05-16T22:54:56.723Z,15.60
2019-05-16T22:57:28.121Z,15.70
2019-05-16T22:59:59.917Z,15.70
2019-05-16T23:02:31.255Z,15.70
2019-05-16T23:05:02.484Z,15.70
2019-05-16T23:07:36.883Z,15.70
2019-05-16T23:10:09.433Z,15.70
2019-05-16T23:12:41.400Z,15.70
2019-05-16T23:15:16.943Z,15.70
2019-05-16T23:17:47.559Z,15.70
2019-05-16T23:20:19.387Z,15.70
2019-05-16T23:22:51.083Z,15.70
2019-05-16T23:25:22.744Z,15.60
2019-05-16T23:27:54.037Z,15.60
2019-05-16T23:30:27.215Z,15.60
2019-05-16T23:32:57.574Z,15.60
2019-05-16T23:35:28.601Z,15.60
2019-05-16T23:38:00.032Z,15.50
2019-05-16T23:40:31.258Z,15.60
2019-05-16T23:43:02.621Z,15.60
2019-05-16T23:45:33.890Z,15.60
2019-05-16T23:48:10.180Z,15.60
2019-05-16T23:50:39.104Z,15.60
2019-05-16T23:53:10.392Z,15.60
2019-05-16T23:55:41.818Z,15.50
2019-05-16T23:58:13.435Z,15.60
